createdAt,value
2023-02-01T00:01:31.303Z,16.31
2023-02-01T00:04:00.156Z,16.27
2023-02-01T00:06:28.614Z,16.27
2023-02-01T00:08:57.495Z,16.24
2023-02-01T00:11:25.963Z,16.22
2023-02-01T00:13:54.670Z,16.20
2023-02-01T00:16:28.316Z,16.16
2023-02-01T00:19:03.949Z,16.14
2023-02-01T00:21:33.146Z,16.10
2023-02-01T00:24:01.870Z,16.10
2023-02-01T00:26:30.203Z,16.09
2023-02-01T00:28:59.103Z,16.07
2023-02-01T00:31:29.463Z,16.04
2023-02-01T00:33:58.731Z,16.04
2023-02-01T00:36:27.267Z,15.99
2023-02-01T00:38:56.138Z,15.99
2023-02-01T00:41:24.859Z,15.97
2023-02-01T00:43:53.652Z,15.95
2023-02-01T00:46:22.870Z,15.94
2023-02-01T00:48:51.768Z,15.86
2023-02-01T00:51:24.053Z,15.88
2023-02-01T00:53:52.857Z,15.89
2023-02-01T00:56:21.468Z,15.84
2023-02-01T00:58:50.327Z,15.85
2023-02-01T01:01:22.024Z,15.82
2023-02-01T01:03:57.797Z,15.82
2023-02-01T01:06:33.093Z,15.80
2023-02-01T01:09:05.278Z,15.79
2023-02-01T01:11:36.775Z,15.76
2023-02-01T01:14:09.016Z,15.77
2023-02-01T01:16:38.028Z,15.74
2023-02-01T01:19:07.920Z,15.71
2023-02-01T01:21:36.286Z,15.70
2023-02-01T01:24:05.902Z,15.67
2023-02-01T01:26:34.346Z,15.64
2023-02-01T01:29:03.099Z,15.65
2023-02-01T01:31:32.011Z,15.64
2023-02-01T01:34:00.957Z,15.62
2023-02-01T01:36:30.441Z,15.62
2023-02-01T01:38:59.260Z,15.60
2023-02-01T01:41:32.151Z,15.59
2023-02-01T01:44:46.444Z,15.56
2023-02-01T01:47:16.067Z,15.47
2023-02-01T01:49:44.958Z,15.53
2023-02-01T01:52:14.056Z,15.49
2023-02-01T01:54:47.459Z,15.51
2023-02-01T01:57:33.717Z,15.49
2023-02-01T02:00:14.818Z,15.48
2023-02-01T02:02:45.539Z,15.46
2023-02-01T02:05:15.143Z,15.42
2023-02-01T02:07:46.687Z,15.43
2023-02-01T02:10:15.649Z,15.42
2023-02-01T02:12:46.326Z,15.40
2023-02-01T02:15:16.125Z,15.35
2023-02-01T02:17:59.724Z,15.37
2023-02-01T02:21:04.576Z,15.37
2023-02-01T02:23:54.726Z,15.32
2023-02-01T02:26:32.310Z,15.34
2023-02-01T02:29:15.724Z,15.33
2023-02-01T02:32:15.005Z,15.32
2023-02-01T02:34:58.941Z,15.25
2023-02-01T02:37:34.849Z,15.28
2023-02-01T02:40:32.564Z,15.27
2023-02-01T02:44:09.393Z,15.21
2023-02-01T02:47:04.395Z,15.22
2023-02-01T02:49:43.766Z,15.21
2023-02-01T02:52:37.361Z,15.22
2023-02-01T02:55:06.461Z,15.19
2023-02-01T02:57:59.506Z,15.18
2023-02-01T03:00:52.149Z,15.18
2023-02-01T03:03:39.508Z,15.17
2023-02-01T03:06:16.039Z,15.11
2023-02-01T03:08:46.487Z,15.15
2023-02-01T03:11:15.863Z,15.14
2023-02-01T03:14:01.348Z,15.11
2023-02-01T03:16:49.181Z,15.07
2023-02-01T03:19:35.836Z,15.09
2023-02-01T03:22:11.145Z,15.08
2023-02-01T03:24:41.659Z,15.07
2023-02-01T03:27:29.159Z,15.01
2023-02-01T03:30:12.429Z,15.01
2023-02-01T03:33:00.451Z,15.05
2023-02-01T03:36:08.333Z,15.03
2023-02-01T03:39:10.670Z,14.97
2023-02-01T03:41:44.101Z,14.98
2023-02-01T03:44:22.167Z,14.97
2023-02-01T03:47:16.337Z,14.97
2023-02-01T03:49:52.540Z,14.96
2023-02-01T03:52:38.874Z,14.96
2023-02-01T03:55:08.298Z,14.94
2023-02-01T03:57:41.325Z,14.90
2023-02-01T04:00:31.832Z,14.91
2023-02-01T04:03:01.149Z,14.92
2023-02-01T04:05:31.531Z,14.86
2023-02-01T04:08:06.348Z,14.89
2023-02-01T04:10:35.152Z,14.86
2023-02-01T04:13:03.710Z,14.85
2023-02-01T04:15:32.663Z,14.84
2023-02-01T04:18:01.232Z,14.84
2023-02-01T04:20:30.219Z,14.83
2023-02-01T04:22:58.924Z,14.83
2023-02-01T04:25:27.966Z,14.78
2023-02-01T04:27:56.512Z,14.77
2023-02-01T04:30:26.614Z,14.78
2023-02-01T04:32:55.141Z,14.76
2023-02-01T04:35:24.119Z,14.75
2023-02-01T04:37:52.659Z,14.74
2023-02-01T04:40:22.858Z,14.76
2023-02-01T04:42:51.588Z,14.79
2023-02-01T04:45:20.500Z,14.84
2023-02-01T04:47:50.430Z,14.90
2023-02-01T04:50:19.452Z,15.00
2023-02-01T04:52:48.187Z,15.04
2023-02-01T04:55:17.311Z,15.11
2023-02-01T04:57:45.839Z,15.17
2023-02-01T05:00:15.561Z,15.31
2023-02-01T05:02:44.189Z,15.45
2023-02-01T05:05:13.088Z,15.54
2023-02-01T05:07:41.609Z,15.64
2023-02-01T05:10:11.959Z,15.69
2023-02-01T05:12:59.258Z,15.83
2023-02-01T05:15:28.210Z,15.97
2023-02-01T05:17:57.927Z,15.93
2023-02-01T05:20:26.953Z,16.05
2023-02-01T05:22:55.492Z,16.10
2023-02-01T05:25:24.399Z,16.22
2023-02-01T05:27:52.899Z,16.24
2023-02-01T05:30:22.439Z,16.32
2023-02-01T05:32:53.181Z,16.43
2023-02-01T05:35:22.082Z,16.48
2023-02-01T05:37:50.668Z,16.63
2023-02-01T05:40:19.619Z,16.65
2023-02-01T05:42:48.192Z,16.59
2023-02-01T05:45:17.317Z,16.61
2023-02-01T05:47:45.858Z,16.61
2023-02-01T05:50:15.047Z,16.73
2023-02-01T05:52:43.609Z,16.75
2023-02-01T05:55:41.287Z,16.82
2023-02-01T05:58:09.849Z,16.95
2023-02-01T06:00:38.838Z,16.91
2023-02-01T06:03:08.049Z,17.05
2023-02-01T06:05:38.221Z,17.09
2023-02-01T06:08:08.665Z,17.15
2023-02-01T06:10:37.770Z,17.12
2023-02-01T06:13:06.681Z,17.15
2023-02-01T06:15:36.497Z,17.09
2023-02-01T06:18:05.514Z,17.05
2023-02-01T06:20:34.597Z,16.94
2023-02-01T06:23:03.328Z,16.97
2023-02-01T06:25:32.388Z,16.93
2023-02-01T06:28:07.061Z,16.88
2023-02-01T06:30:36.271Z,16.82
2023-02-01T06:33:04.958Z,16.85
2023-02-01T06:35:33.968Z,16.75
2023-02-01T06:38:02.793Z,16.68
2023-02-01T06:40:31.877Z,16.63
2023-02-01T06:43:00.719Z,16.59
2023-02-01T06:45:29.800Z,16.53
2023-02-01T06:47:59.865Z,16.54
2023-02-01T06:50:29.020Z,16.48
2023-02-01T06:52:57.769Z,16.44
2023-02-01T06:55:26.567Z,16.39
2023-02-01T06:57:56.129Z,16.27
2023-02-01T07:00:25.445Z,16.32
2023-02-01T07:02:54.328Z,16.29
2023-02-01T07:05:23.178Z,16.23
2023-02-01T07:07:51.731Z,16.17
2023-02-01T07:10:20.666Z,16.14
2023-02-01T07:12:49.378Z,16.15
2023-02-01T07:15:18.406Z,16.10
2023-02-01T07:17:48.193Z,16.10
2023-02-01T07:20:18.019Z,16.02
2023-02-01T07:22:46.480Z,16.01
2023-02-01T07:25:15.418Z,15.97
2023-02-01T07:27:43.921Z,15.96
2023-02-01T07:30:13.419Z,15.94
2023-02-01T07:32:42.291Z,15.92
2023-02-01T07:35:11.226Z,15.90
2023-02-01T07:37:39.727Z,15.88
2023-02-01T07:40:09.500Z,15.85
2023-02-01T07:42:38.015Z,15.80
2023-02-01T07:45:20.514Z,15.79
2023-02-01T07:47:50.373Z,15.75
2023-02-01T07:50:19.289Z,15.70
2023-02-01T07:52:47.776Z,15.70
2023-02-01T07:55:17.896Z,15.67
2023-02-01T07:57:46.552Z,15.67
2023-02-01T08:00:34.689Z,15.62
2023-02-01T08:03:04.439Z,15.60
2023-02-01T08:05:33.401Z,15.61
2023-02-01T08:08:02.152Z,15.57
2023-02-01T08:10:30.944Z,15.55
2023-02-01T08:13:01.368Z,15.55
2023-02-01T08:15:30.669Z,15.50
2023-02-01T08:17:59.788Z,15.53
2023-02-01T08:20:29.600Z,15.52
2023-02-01T08:22:58.018Z,15.52
2023-02-01T08:25:26.811Z,15.49
2023-02-01T08:27:56.013Z,15.49
2023-02-01T08:30:25.017Z,15.47
2023-02-01T08:32:53.668Z,15.42
2023-02-01T08:35:25.762Z,15.45
2023-02-01T08:37:59.159Z,15.43
2023-02-01T08:40:27.971Z,15.44
2023-02-01T08:42:57.268Z,15.43
2023-02-01T08:45:29.190Z,15.43
2023-02-01T08:47:58.005Z,15.40
2023-02-01T08:50:27.248Z,15.39
2023-02-01T08:52:55.977Z,15.40
2023-02-01T08:55:24.850Z,15.40
2023-02-01T08:57:53.466Z,15.39
2023-02-01T09:00:23.980Z,15.42
2023-02-01T09:02:52.708Z,15.43
2023-02-01T09:05:24.322Z,15.43
2023-02-01T09:07:52.867Z,15.42
2023-02-01T09:10:34.287Z,15.41
2023-02-01T09:13:04.277Z,15.46
2023-02-01T09:15:33.137Z,15.50
2023-02-01T09:18:01.693Z,15.51
2023-02-01T09:20:30.741Z,15.47
2023-02-01T09:22:59.164Z,15.48
2023-02-01T09:25:28.758Z,15.51
2023-02-01T09:27:57.479Z,15.57
2023-02-01T09:30:26.764Z,15.61
2023-02-01T09:32:55.509Z,15.61
2023-02-01T09:35:25.557Z,15.63
2023-02-01T09:37:57.184Z,15.59
2023-02-01T09:40:26.531Z,15.59
2023-02-01T09:43:00.599Z,15.57
2023-02-01T09:45:56.221Z,15.52
2023-02-01T09:48:34.232Z,15.54
2023-02-01T09:51:06.017Z,15.53
2023-02-01T09:53:40.468Z,15.54
2023-02-01T09:56:15.289Z,15.54
2023-02-01T09:58:44.847Z,15.60
2023-02-01T10:01:26.399Z,15.59
2023-02-01T10:04:06.586Z,15.62
2023-02-01T10:06:54.247Z,15.57
2023-02-01T10:09:25.929Z,15.60
2023-02-01T10:12:33.095Z,15.57
2023-02-01T10:15:08.171Z,15.62
2023-02-01T10:17:50.139Z,15.60
2023-02-01T10:20:46.379Z,15.59
2023-02-01T10:23:43.390Z,15.59
2023-02-01T10:26:26.555Z,15.56
2023-02-01T10:29:03.721Z,15.59
2023-02-01T10:31:36.533Z,15.62
2023-02-01T10:34:14.036Z,15.65
2023-02-01T10:36:49.525Z,15.73
2023-02-01T10:39:18.492Z,15.77
2023-02-01T10:41:47.881Z,15.84
2023-02-01T10:44:29.208Z,15.89
2023-02-01T10:46:57.756Z,15.99
2023-02-01T10:49:35.108Z,16.11
2023-02-01T10:52:18.712Z,16.27
2023-02-01T10:54:48.010Z,16.38
2023-02-01T10:57:29.542Z,16.44
2023-02-01T10:59:58.735Z,16.57
2023-02-01T11:02:30.571Z,16.62
2023-02-01T11:05:07.397Z,16.70
2023-02-01T11:07:36.239Z,16.78
2023-02-01T11:10:05.759Z,16.86
2023-02-01T11:12:38.268Z,16.94
2023-02-01T11:15:19.776Z,17.02
2023-02-01T11:17:52.722Z,17.09
2023-02-01T11:20:42.175Z,17.14
2023-02-01T11:23:18.952Z,17.30
2023-02-01T11:26:00.469Z,17.27
2023-02-01T11:28:32.430Z,17.35
2023-02-01T11:31:07.385Z,17.39
2023-02-01T11:33:38.658Z,17.46
2023-02-01T11:36:31.796Z,17.51
2023-02-01T11:39:11.153Z,17.57
2023-02-01T11:42:02.977Z,17.62
2023-02-01T11:44:36.028Z,17.60
2023-02-01T11:47:28.132Z,17.70
2023-02-01T11:50:01.023Z,17.78
2023-02-01T11:52:57.289Z,17.16
2023-02-01T11:55:31.835Z,15.79
2023-02-01T11:58:12.931Z,15.27
2023-02-01T12:00:48.786Z,15.08
2023-02-01T12:03:53.670Z,14.90
2023-02-01T12:06:25.967Z,14.89
2023-02-01T12:09:31.741Z,15.07
2023-02-01T12:12:07.147Z,15.81
2023-02-01T12:14:55.788Z,16.43
2023-02-01T12:18:01.141Z,16.81
2023-02-01T12:20:58.750Z,16.92
2023-02-01T12:24:12.601Z,16.96
2023-02-01T12:26:56.186Z,17.06
2023-02-01T12:29:45.738Z,17.10
2023-02-01T12:32:46.159Z,17.06
2023-02-01T12:35:40.662Z,17.04
2023-02-01T12:38:22.869Z,17.02
2023-02-01T12:41:24.094Z,17.02
2023-02-01T12:44:32.619Z,17.01
2023-02-01T12:47:22.636Z,16.95
2023-02-01T12:50:06.380Z,16.97
2023-02-01T12:52:54.948Z,16.94
2023-02-01T12:55:41.701Z,16.94
2023-02-01T12:58:44.298Z,16.87
2023-02-01T13:01:36.817Z,16.94
2023-02-01T13:04:17.609Z,16.86
2023-02-01T13:07:09.251Z,16.84
2023-02-01T13:09:48.762Z,16.83
2023-02-01T13:12:27.334Z,16.82
2023-02-01T13:15:01.860Z,16.80
2023-02-01T13:17:33.479Z,16.76
2023-02-01T13:20:19.956Z,16.77
2023-02-01T13:22:56.411Z,16.74
2023-02-01T13:25:51.773Z,16.70
2023-02-01T13:28:48.791Z,16.69
2023-02-01T13:32:19.402Z,16.68
2023-02-01T13:35:17.263Z,16.65
2023-02-01T13:38:16.763Z,16.64
2023-02-01T13:41:30.082Z,16.63
2023-02-01T13:44:15.372Z,16.57
2023-02-01T13:46:47.643Z,16.57
2023-02-01T13:49:26.515Z,16.53
2023-02-01T13:51:57.400Z,16.57
2023-02-01T13:54:39.259Z,16.52
2023-02-01T13:57:38.820Z,16.48
2023-02-01T14:00:31.649Z,16.46
2023-02-01T14:03:03.706Z,16.46
2023-02-01T14:05:32.734Z,16.41
2023-02-01T14:08:26.048Z,16.42
2023-02-01T14:10:59.515Z,16.41
2023-02-01T14:13:42.303Z,16.40
2023-02-01T14:16:17.874Z,16.36
2023-02-01T14:18:47.514Z,16.37
2023-02-01T14:21:33.392Z,16.38
2023-02-01T14:24:11.325Z,16.36
2023-02-01T14:26:43.868Z,16.35
2023-02-01T14:29:22.252Z,16.33
2023-02-01T14:32:13.983Z,16.32
2023-02-01T14:34:55.962Z,16.26
2023-02-01T14:37:33.151Z,16.26
2023-02-01T14:40:12.186Z,16.24
2023-02-01T14:42:43.883Z,16.20
2023-02-01T14:45:25.583Z,16.22
2023-02-01T14:48:09.634Z,16.18
2023-02-01T14:50:42.029Z,16.18
2023-02-01T14:53:16.642Z,16.14
2023-02-01T14:55:51.764Z,16.14
2023-02-01T14:58:48.411Z,16.13
2023-02-01T15:01:33.033Z,16.10
2023-02-01T15:04:11.271Z,16.06
2023-02-01T15:06:41.636Z,16.06
2023-02-01T15:09:28.077Z,16.05
2023-02-01T15:12:13.629Z,16.00
2023-02-01T15:15:05.487Z,15.97
2023-02-01T15:17:38.392Z,15.95
2023-02-01T15:20:17.144Z,15.94
2023-02-01T15:23:02.477Z,15.91
2023-02-01T15:25:35.500Z,15.91
2023-02-01T15:28:04.761Z,15.87
2023-02-01T15:30:35.717Z,15.87
2023-02-01T15:33:13.812Z,15.82
2023-02-01T15:35:44.882Z,15.78
2023-02-01T15:38:27.532Z,15.76
2023-02-01T15:41:08.999Z,15.74
2023-02-01T15:43:54.800Z,15.68
2023-02-01T15:46:31.819Z,15.63
2023-02-01T15:49:00.841Z,15.59
2023-02-01T15:51:31.739Z,15.56
2023-02-01T15:54:08.980Z,15.52
2023-02-01T15:56:39.417Z,15.51
2023-02-01T15:59:18.462Z,15.49
2023-02-01T16:01:47.296Z,15.47
2023-02-01T16:04:19.643Z,15.44
2023-02-01T16:07:22.284Z,15.41
2023-02-01T16:09:57.292Z,15.38
2023-02-01T16:12:33.197Z,15.35
2023-02-01T16:15:02.833Z,15.33
2023-02-01T16:17:31.632Z,15.31
2023-02-01T16:20:00.853Z,15.29
2023-02-01T16:22:31.639Z,15.28
2023-02-01T16:25:00.666Z,15.25
2023-02-01T16:27:29.461Z,15.24
2023-02-01T16:29:58.581Z,15.23
2023-02-01T16:32:27.846Z,15.20
2023-02-01T16:34:57.752Z,15.19
2023-02-01T16:37:29.190Z,15.17
2023-02-01T16:39:58.292Z,15.17
2023-02-01T16:42:27.046Z,15.16
2023-02-01T16:44:56.092Z,15.15
2023-02-01T16:47:24.879Z,15.13
2023-02-01T16:49:53.882Z,15.14
2023-02-01T16:52:26.689Z,15.13
2023-02-01T16:54:55.684Z,15.12
2023-02-01T16:57:25.008Z,15.10
2023-02-01T16:59:54.240Z,15.08
2023-02-01T17:02:25.034Z,15.08
2023-02-01T17:04:55.449Z,15.06
2023-02-01T17:07:24.632Z,15.04
2023-02-01T17:09:53.681Z,15.03
2023-02-01T17:12:33.635Z,15.02
2023-02-01T17:15:02.718Z,15.08
2023-02-01T17:17:39.745Z,15.18
2023-02-01T17:20:11.593Z,15.29
2023-02-01T17:22:40.325Z,15.42
2023-02-01T17:25:18.899Z,15.55
2023-02-01T17:27:48.214Z,15.63
2023-02-01T17:30:17.701Z,15.73
2023-02-01T17:32:46.468Z,15.77
2023-02-01T17:35:22.532Z,15.78
2023-02-01T17:37:52.158Z,15.86
2023-02-01T17:40:21.412Z,15.98
2023-02-01T17:42:50.493Z,16.09
2023-02-01T17:45:38.935Z,16.16
2023-02-01T17:48:08.553Z,16.15
2023-02-01T17:50:38.182Z,16.33
2023-02-01T17:53:10.069Z,16.34
2023-02-01T17:55:42.394Z,16.45
2023-02-01T17:58:15.041Z,16.59
2023-02-01T18:00:44.371Z,16.69
2023-02-01T18:03:32.231Z,16.72
2023-02-01T18:06:02.312Z,16.85
2023-02-01T18:08:33.923Z,16.92
2023-02-01T18:11:03.167Z,17.03
2023-02-01T18:13:32.431Z,17.14
2023-02-01T18:16:02.641Z,17.23
2023-02-01T18:18:36.454Z,17.26
2023-02-01T18:21:07.920Z,17.23
2023-02-01T18:23:36.655Z,17.30
2023-02-01T18:26:06.122Z,17.29
2023-02-01T18:28:34.967Z,17.41
2023-02-01T18:31:04.681Z,17.42
2023-02-01T18:33:33.509Z,17.47
2023-02-01T18:36:02.601Z,17.51
2023-02-01T18:38:31.353Z,17.45
2023-02-01T18:41:01.482Z,17.47
2023-02-01T18:43:30.202Z,17.43
2023-02-01T18:46:00.140Z,17.44
2023-02-01T18:48:28.903Z,17.34
2023-02-01T18:50:58.182Z,17.30
2023-02-01T18:53:29.580Z,17.25
2023-02-01T18:56:00.659Z,17.22
2023-02-01T18:58:29.609Z,17.23
2023-02-01T19:01:07.277Z,17.20
2023-02-01T19:03:40.930Z,17.16
2023-02-01T19:06:12.976Z,17.13
2023-02-01T19:08:41.764Z,17.14
2023-02-01T19:11:12.668Z,17.12
2023-02-01T19:13:41.632Z,17.12
2023-02-01T19:16:12.648Z,17.20
2023-02-01T19:18:41.412Z,17.15
2023-02-01T19:21:12.412Z,17.24
2023-02-01T19:23:41.607Z,17.34
2023-02-01T19:26:15.075Z,17.35
2023-02-01T19:28:48.141Z,17.45
2023-02-01T19:31:17.341Z,17.53
2023-02-01T19:33:46.483Z,17.51
2023-02-01T19:36:15.502Z,17.52
2023-02-01T19:38:44.322Z,17.58
2023-02-01T19:41:21.762Z,17.61
2023-02-01T19:43:52.861Z,17.52
2023-02-01T19:46:21.967Z,17.46
2023-02-01T19:48:53.102Z,17.42
2023-02-01T19:51:22.264Z,17.35
2023-02-01T19:53:50.946Z,17.32
2023-02-01T19:56:22.328Z,17.29
2023-02-01T19:58:52.281Z,17.23
2023-02-01T20:01:20.774Z,17.19
2023-02-01T20:03:49.883Z,17.14
2023-02-01T20:06:21.007Z,17.14
2023-02-01T20:08:50.218Z,17.09
2023-02-01T20:11:19.324Z,17.04
2023-02-01T20:13:49.210Z,17.04
2023-02-01T20:16:18.520Z,17.00
2023-02-01T20:18:47.542Z,16.96
2023-02-01T20:21:18.455Z,16.92
2023-02-01T20:23:47.743Z,16.90
2023-02-01T20:26:17.811Z,16.87
2023-02-01T20:28:46.531Z,16.84
2023-02-01T20:31:18.501Z,16.81
2023-02-01T20:33:47.305Z,16.76
2023-02-01T20:36:19.983Z,16.74
2023-02-01T20:38:48.750Z,16.69
2023-02-01T20:41:20.828Z,16.65
2023-02-01T20:43:49.672Z,16.61
2023-02-01T20:46:18.925Z,16.56
2023-02-01T20:48:48.590Z,16.55
2023-02-01T20:51:19.103Z,16.53
2023-02-01T20:53:48.843Z,16.51
2023-02-01T20:56:18.126Z,16.46
2023-02-01T20:58:46.764Z,16.43
2023-02-01T21:01:19.757Z,16.38
2023-02-01T21:03:48.220Z,16.34
2023-02-01T21:06:17.044Z,16.33
2023-02-01T21:08:45.418Z,16.29
2023-02-01T21:11:16.390Z,16.26
2023-02-01T21:13:50.902Z,16.23
2023-02-01T21:16:21.669Z,16.19
2023-02-01T21:18:53.903Z,16.16
2023-02-01T21:21:22.824Z,16.15
2023-02-01T21:23:52.988Z,16.14
2023-02-01T21:26:23.220Z,16.11
2023-02-01T21:28:52.936Z,16.08
2023-02-01T21:31:25.074Z,16.06
2023-02-01T21:33:53.475Z,16.03
2023-02-01T21:36:23.095Z,16.02
2023-02-01T21:38:55.338Z,15.98
2023-02-01T21:41:47.353Z,15.97
2023-02-01T21:44:16.348Z,15.94
2023-02-01T21:46:45.769Z,15.92
2023-02-01T21:49:14.456Z,15.92
2023-02-01T21:51:43.744Z,15.90
2023-02-01T21:54:12.698Z,15.88
2023-02-01T21:56:41.954Z,15.84
2023-02-01T21:59:10.630Z,15.83
2023-02-01T22:01:40.703Z,15.83
2023-02-01T22:04:10.411Z,15.79
2023-02-01T22:06:47.114Z,15.75
2023-02-01T22:09:24.247Z,15.68
2023-02-01T22:11:54.212Z,15.69
2023-02-01T22:14:23.110Z,15.67
2023-02-01T22:16:52.276Z,15.64
2023-02-01T22:19:21.698Z,15.62
2023-02-01T22:21:50.746Z,15.61
2023-02-01T22:24:23.009Z,15.58
2023-02-01T22:26:51.880Z,15.56
2023-02-01T22:29:21.065Z,15.55
2023-02-01T22:31:50.241Z,15.54
2023-02-01T22:34:19.470Z,15.50
2023-02-01T22:36:50.998Z,15.49
2023-02-01T22:39:20.007Z,15.48
2023-02-01T22:41:48.635Z,15.46
2023-02-01T22:44:17.708Z,15.45
2023-02-01T22:46:46.393Z,15.43
2023-02-01T22:49:15.848Z,15.42
2023-02-01T22:51:44.668Z,15.41
2023-02-01T22:54:22.841Z,15.38
2023-02-01T22:56:51.668Z,15.37
2023-02-01T22:59:20.735Z,15.34
2023-02-01T23:01:49.475Z,15.34
2023-02-01T23:04:19.174Z,15.31
2023-02-01T23:06:54.020Z,15.30
2023-02-01T23:09:25.597Z,15.28
2023-02-01T23:11:55.127Z,15.28
2023-02-01T23:14:24.315Z,15.26
2023-02-01T23:16:53.426Z,15.26
2023-02-01T23:19:22.732Z,15.24
2023-02-01T23:21:51.439Z,15.23
2023-02-01T23:24:20.514Z,15.22
2023-02-01T23:26:49.263Z,15.19
2023-02-01T23:29:18.958Z,15.17
2023-02-01T23:31:47.803Z,15.17
2023-02-01T23:34:16.934Z,15.16
2023-02-01T23:36:45.668Z,15.14
2023-02-01T23:39:14.743Z,15.13
2023-02-01T23:41:43.536Z,15.12
2023-02-01T23:44:12.889Z,15.11
2023-02-01T23:46:47.630Z,15.10
2023-02-01T23:49:19.894Z,15.07
2023-02-01T23:51:51.994Z,15.08
2023-02-01T23:54:22.831Z,15.06
2023-02-01T23:56:51.694Z,15.05
2023-02-01T23:59:22.221Z,15.04
